createdAt,value
2022-10-01T03:03:03.283Z,6.23
2022-10-01T03:05:31.563Z,7.10
2022-10-01T03:07:58.885Z,4.13
2022-10-01T03:10:26.209Z,5.90
2022-10-01T03:12:53.614Z,6.50
2022-10-01T03:15:21.327Z,5.07
2022-10-01T03:17:53.759Z,5.28
2022-10-01T03:20:22.406Z,8.80
2022-10-01T03:22:51.242Z,5.15
2022-10-01T03:25:22.005Z,3.60
2022-10-01T03:27:53.199Z,8.85
2022-10-01T03:30:21.714Z,4.45
2022-10-01T03:32:48.831Z,6.32
2022-10-01T03:35:16.112Z,4.40
2022-10-01T03:37:43.436Z,2.20
2022-10-01T03:40:10.865Z,6.15
2022-10-01T03:42:38.129Z,6.97
2022-10-01T03:45:05.524Z,5.72
2022-10-01T03:47:32.616Z,10.88
2022-10-01T03:49:59.910Z,5.78
2022-10-01T03:52:27.002Z,5.68
2022-10-01T03:54:54.035Z,5.47
2022-10-01T03:57:21.240Z,4.78
2022-10-01T03:59:48.369Z,5.80
2022-10-01T04:02:15.877Z,5.82
2022-10-01T04:04:43.282Z,7.15
2022-10-01T04:07:10.568Z,8.52
2022-10-01T04:09:37.826Z,5.80
2022-10-01T04:12:05.264Z,7.63
2022-10-01T04:14:32.317Z,5.57
2022-10-01T04:17:00.734Z,11.93
2022-10-01T04:19:27.947Z,9.25
2022-10-01T04:21:55.036Z,8.35
2022-10-01T04:24:22.182Z,7.03
2022-10-01T04:26:51.454Z,6.57
2022-10-01T04:29:18.734Z,14.60
2022-10-01T04:31:46.022Z,8.77
2022-10-01T04:34:13.098Z,10.15
2022-10-01T04:36:40.201Z,10.68
2022-10-01T04:39:07.350Z,12.65
2022-10-01T04:41:34.671Z,6.65
2022-10-01T04:44:02.296Z,9.05
2022-10-01T04:46:30.629Z,11.10
2022-10-01T04:48:58.072Z,6.20
2022-10-01T04:51:25.331Z,8.52
2022-10-01T04:53:52.446Z,5.68
2022-10-01T04:56:19.840Z,7.95
2022-10-01T04:58:46.968Z,7.20
2022-10-01T05:01:14.114Z,6.40
2022-10-01T05:03:41.775Z,6.57
2022-10-01T05:06:11.927Z,8.63
2022-10-01T05:08:39.306Z,6.40
2022-10-01T05:11:06.623Z,6.00
2022-10-01T05:13:33.768Z,7.78
2022-10-01T05:16:02.517Z,4.97
2022-10-01T05:18:30.198Z,8.02
2022-10-01T05:20:57.406Z,6.25
2022-10-01T05:23:24.622Z,5.18
2022-10-01T05:25:51.781Z,5.72
2022-10-01T05:28:22.488Z,6.10
2022-10-01T05:30:51.291Z,4.90
2022-10-01T05:33:18.513Z,5.88
2022-10-01T05:35:45.676Z,5.75
2022-10-01T05:38:12.712Z,2.50
2022-10-01T05:40:39.990Z,4.70
2022-10-01T05:43:07.867Z,5.40
2022-10-01T05:45:35.997Z,4.85
2022-10-01T05:48:08.546Z,3.05
2022-10-01T05:50:42.626Z,7.40
2022-10-01T05:53:14.175Z,3.53
2022-10-01T05:55:41.448Z,3.50
2022-10-01T05:58:11.434Z,5.38
2022-10-01T06:00:40.834Z,8.63
2022-10-01T06:03:08.689Z,2.88
2022-10-01T06:05:36.970Z,2.55
2022-10-01T06:08:09.874Z,4.00
2022-10-01T06:10:39.045Z,5.80
2022-10-01T06:13:07.493Z,3.75
2022-10-01T06:15:39.388Z,3.95
2022-10-01T06:18:09.030Z,3.95
2022-10-01T06:20:36.571Z,1.50
2022-10-01T06:23:11.654Z,4.03
2022-10-01T06:25:41.739Z,2.78
2022-10-01T06:28:11.913Z,2.92
2022-10-01T06:30:40.381Z,2.25
2022-10-01T06:33:13.563Z,2.40
2022-10-01T06:38:10.718Z,4.63
2022-10-01T06:40:38.472Z,4.80
2022-10-01T06:43:08.389Z,4.38
2022-10-01T06:45:42.854Z,2.60
2022-10-01T06:48:14.855Z,5.38
2022-10-01T06:50:44.329Z,3.78
2022-10-01T06:53:13.236Z,6.00
2022-10-01T06:55:41.400Z,2.65
2022-10-01T06:58:14.146Z,3.75
2022-10-01T07:00:44.307Z,1.95
2022-10-01T07:03:15.224Z,7.53
2022-10-01T07:05:43.006Z,6.55
2022-10-01T07:08:10.988Z,10.20
2022-10-01T07:10:48.489Z,5.63
2022-10-01T07:13:26.591Z,4.80
2022-10-01T07:15:56.599Z,12.88
2022-10-01T07:18:24.521Z,11.98
2022-10-01T07:20:51.957Z,9.65
2022-10-01T07:23:19.481Z,13.30
2022-10-01T07:25:46.944Z,8.20
2022-10-01T07:28:18.393Z,10.10
2022-10-01T07:31:01.209Z,10.95
2022-10-01T07:33:32.037Z,9.93
2022-10-01T07:36:05.694Z,16.15
2022-10-01T07:38:34.461Z,14.10
2022-10-01T07:41:05.207Z,15.75
2022-10-01T07:43:33.601Z,10.93
2022-10-01T07:46:02.862Z,12.35
2022-10-01T07:48:33.647Z,18.48
2022-10-01T07:51:01.111Z,16.73
2022-10-01T07:53:35.257Z,15.98
2022-10-01T07:56:03.380Z,16.95
2022-10-01T07:58:30.774Z,12.07
2022-10-01T08:01:00.495Z,17.73
2022-10-01T08:03:27.801Z,12.73
2022-10-01T08:05:55.488Z,18.25
2022-10-01T08:08:23.358Z,18.35
2022-10-01T08:10:51.126Z,23.55
2022-10-01T08:13:18.616Z,14.77
2022-10-01T08:15:50.257Z,15.00
2022-10-01T08:18:17.425Z,14.52
2022-10-01T08:20:44.607Z,17.27
2022-10-01T08:23:15.136Z,14.88
2022-10-01T08:25:43.785Z,14.93
2022-10-01T08:28:12.097Z,12.93
2022-10-01T08:30:41.803Z,14.00
2022-10-01T08:33:12.063Z,11.73
2022-10-01T08:35:41.105Z,11.85
2022-10-01T08:38:08.458Z,9.65
2022-10-01T08:40:42.379Z,14.18
2022-10-01T08:43:31.245Z,8.05
2022-10-01T08:46:03.254Z,11.20
2022-10-01T08:48:40.298Z,11.75
2022-10-01T08:51:30.523Z,14.93
2022-10-01T08:54:08.860Z,12.52
2022-10-01T08:56:40.852Z,5.82
2022-10-01T08:59:54.148Z,9.80
2022-10-01T09:02:42.802Z,11.60
2022-10-01T09:05:29.811Z,11.63
2022-10-01T09:08:46.651Z,11.95
2022-10-01T09:11:43.035Z,8.65
2022-10-01T09:14:30.331Z,8.98
2022-10-01T09:17:11.050Z,7.53
2022-10-01T09:20:04.992Z,11.60
2022-10-01T09:22:42.311Z,10.93
2022-10-01T09:25:09.351Z,8.60
2022-10-01T09:27:38.674Z,8.00
2022-10-01T09:30:08.093Z,7.30
2022-10-01T09:33:12.180Z,11.15
2022-10-01T09:35:56.974Z,8.02
2022-10-01T09:38:37.422Z,13.98
2022-10-01T09:41:04.835Z,10.70
2022-10-01T09:43:42.817Z,12.45
2022-10-01T09:46:22.320Z,14.35
2022-10-01T09:49:05.507Z,21.88
2022-10-01T09:51:46.764Z,13.25
2022-10-01T09:54:36.048Z,12.38
2022-10-01T09:57:10.044Z,18.80
2022-10-01T09:59:56.822Z,13.93
2022-10-01T10:02:32.632Z,8.90
2022-10-01T10:05:06.434Z,10.35
2022-10-01T10:07:35.400Z,12.80
2022-10-01T10:10:25.689Z,9.30
2022-10-01T10:13:03.218Z,10.07
2022-10-01T10:15:32.771Z,13.85
2022-10-01T10:18:11.823Z,15.88
2022-10-01T10:20:45.744Z,17.40
2022-10-01T10:23:18.642Z,10.95
2022-10-01T10:26:07.651Z,18.48
2022-10-01T10:28:47.984Z,17.00
2022-10-01T10:31:22.334Z,13.52
2022-10-01T10:33:54.563Z,13.85
2022-10-01T10:36:30.209Z,11.97
2022-10-01T10:38:58.643Z,14.27
2022-10-01T10:41:27.818Z,15.13
2022-10-01T10:44:05.289Z,12.73
2022-10-01T10:46:42.832Z,13.70
2022-10-01T10:49:29.790Z,13.32
2022-10-01T10:52:01.129Z,9.27
2022-10-01T10:54:33.589Z,14.35
2022-10-01T10:57:21.448Z,11.32
2022-10-01T10:59:56.329Z,10.13
2022-10-01T11:02:30.634Z,12.30
2022-10-01T11:05:02.686Z,13.07
2022-10-01T11:07:30.838Z,11.25
2022-10-01T11:10:26.323Z,11.98
2022-10-01T11:13:20.995Z,16.50
2022-10-01T11:16:02.969Z,12.80
2022-10-01T11:18:51.969Z,14.32
2022-10-01T11:21:56.885Z,11.27
2022-10-01T11:25:02.316Z,8.10
2022-10-01T11:27:36.745Z,9.93
2022-10-01T11:30:09.346Z,8.50
2022-10-01T11:32:44.328Z,11.80
2022-10-01T11:35:37.402Z,7.18
2022-10-01T11:38:07.610Z,9.52
2022-10-01T11:40:41.317Z,8.60
2022-10-01T11:43:34.714Z,5.97
2022-10-01T11:46:13.984Z,5.88
2022-10-01T11:49:17.235Z,6.68
2022-10-01T11:51:50.377Z,5.25
2022-10-01T11:54:24.732Z,7.40
2022-10-01T11:57:13.976Z,8.07
2022-10-01T11:59:50.567Z,7.43
2022-10-01T12:02:28.386Z,11.15
2022-10-01T12:05:00.320Z,12.13
2022-10-01T12:07:51.282Z,10.00
2022-10-01T12:10:21.929Z,10.63
2022-10-01T12:12:58.412Z,5.50
2022-10-01T12:15:45.421Z,7.93
2022-10-01T12:18:37.228Z,8.23
2022-10-01T12:21:14.477Z,3.95
2022-10-01T12:23:53.162Z,4.85
2022-10-01T12:26:23.492Z,4.97
2022-10-01T12:28:59.335Z,6.30
2022-10-01T12:31:59.256Z,6.18
2022-10-01T12:34:33.780Z,5.05
2022-10-01T12:37:12.987Z,3.15
2022-10-01T12:40:10.679Z,5.30
2022-10-01T12:42:53.602Z,4.97
2022-10-01T12:45:43.953Z,3.25
2022-10-01T12:48:41.681Z,4.80
2022-10-01T12:51:56.946Z,6.40
2022-10-01T12:54:43.311Z,6.18
2022-10-01T12:57:14.096Z,4.85
2022-10-01T12:59:41.737Z,4.68
2022-10-01T13:03:00.263Z,3.60
2022-10-01T13:05:31.348Z,2.45
2022-10-01T13:07:58.936Z,5.28
2022-10-01T13:10:57.613Z,4.22
2022-10-01T13:13:36.033Z,5.68
2022-10-01T13:16:18.807Z,4.90
2022-10-01T13:18:53.454Z,2.78
2022-10-01T13:21:42.698Z,2.92
2022-10-01T13:24:17.087Z,6.40
2022-10-01T13:27:08.708Z,3.40
2022-10-01T13:29:51.554Z,5.93
2022-10-01T13:32:36.000Z,5.85
2022-10-01T13:35:24.665Z,2.20
2022-10-01T13:37:53.318Z,5.90
2022-10-01T13:40:33.110Z,4.43
2022-10-01T13:43:19.547Z,4.07
2022-10-01T13:45:50.289Z,2.90
2022-10-01T13:48:21.641Z,5.60
2022-10-01T13:51:12.066Z,2.22
2022-10-01T13:53:55.229Z,3.00
2022-10-01T13:59:05.574Z,1.85
2022-10-01T14:01:41.400Z,5.22
2022-10-01T14:04:39.083Z,1.00
2022-10-01T14:07:20.434Z,4.07
2022-10-01T14:09:52.116Z,2.50
2022-10-01T14:12:53.228Z,1.90
2022-10-01T14:15:44.599Z,2.45
2022-10-01T14:18:25.357Z,4.05
2022-10-01T14:21:10.938Z,2.17
2022-10-01T14:24:06.114Z,3.60
2022-10-01T14:26:47.780Z,5.45
2022-10-01T14:30:00.921Z,3.85
2022-10-01T14:32:43.407Z,6.45
2022-10-01T14:35:43.864Z,0.93
2022-10-01T14:38:22.325Z,2.88
2022-10-01T14:40:51.624Z,0.93
2022-10-01T14:43:27.057Z,1.55
2022-10-01T14:46:07.622Z,1.38
2022-10-01T14:48:38.339Z,3.92
2022-10-01T14:51:07.827Z,1.70
2022-10-01T14:53:38.283Z,2.88
2022-10-01T14:56:10.244Z,1.00
2022-10-01T14:59:03.502Z,1.73
2022-10-01T15:01:30.901Z,4.22
2022-10-01T15:03:58.498Z,1.75
2022-10-01T15:06:30.321Z,6.20
2022-10-01T15:09:12.830Z,4.75
2022-10-01T15:11:44.424Z,4.43
2022-10-01T15:14:19.585Z,3.17
2022-10-01T15:16:47.196Z,4.55
2022-10-01T15:19:17.883Z,6.28
2022-10-01T15:21:50.785Z,4.32
2022-10-01T15:24:24.209Z,7.78
2022-10-01T15:26:52.814Z,8.52
2022-10-01T15:29:20.209Z,7.32
2022-10-01T15:31:51.085Z,6.10
2022-10-01T15:34:21.685Z,5.93
2022-10-01T15:36:50.743Z,8.35
2022-10-01T15:39:30.186Z,9.30
2022-10-01T15:41:58.510Z,8.68
2022-10-01T15:44:49.497Z,6.88
2022-10-01T15:47:34.198Z,14.77
2022-10-01T15:50:18.602Z,6.70
2022-10-01T15:52:54.827Z,6.63
2022-10-01T15:55:35.247Z,6.85
2022-10-01T15:58:17.271Z,7.45
2022-10-01T16:00:51.188Z,5.40
2022-10-01T16:03:26.293Z,7.32
2022-10-01T16:05:55.495Z,8.80
2022-10-01T16:08:38.001Z,9.65
2022-10-01T16:11:19.541Z,7.45
2022-10-01T16:13:50.803Z,4.40
2022-10-01T16:16:21.766Z,9.40
2022-10-01T16:18:54.485Z,7.38
2022-10-01T16:21:22.514Z,17.98
2022-10-01T16:23:55.524Z,11.50
2022-10-01T16:29:08.211Z,9.55
2022-10-01T16:31:37.264Z,8.73
2022-10-01T16:34:14.084Z,12.48
2022-10-01T16:36:41.699Z,12.23
2022-10-01T16:39:09.220Z,7.47
2022-10-01T16:41:37.151Z,15.52
2022-10-01T16:44:08.019Z,13.20
2022-10-01T16:46:35.449Z,16.63
2022-10-01T16:49:10.004Z,16.65
2022-10-01T16:51:37.353Z,15.38
2022-10-01T16:54:04.801Z,11.45
2022-10-01T16:56:32.189Z,15.73
2022-10-01T16:59:01.335Z,10.57
2022-10-01T17:01:29.901Z,15.88
2022-10-01T17:04:03.066Z,13.00
2022-10-01T17:06:30.717Z,16.08
2022-10-01T17:09:01.272Z,12.73
2022-10-01T17:11:30.413Z,9.38
2022-10-01T17:13:58.244Z,13.38
2022-10-01T17:16:26.581Z,12.55
2022-10-01T17:18:54.151Z,15.27
2022-10-01T17:21:25.346Z,12.77
2022-10-01T17:23:53.808Z,19.45
2022-10-01T17:26:22.075Z,16.42
2022-10-01T17:28:50.254Z,20.42
2022-10-01T17:31:18.990Z,11.20
2022-10-01T17:33:49.613Z,13.48
2022-10-01T17:36:18.027Z,10.20
2022-10-01T17:39:08.816Z,14.90
2022-10-01T17:41:40.093Z,13.23
2022-10-01T17:44:08.162Z,20.83
2022-10-01T17:46:36.461Z,12.63
2022-10-01T17:49:04.045Z,21.20
2022-10-01T17:51:32.178Z,22.48
2022-10-01T17:54:02.176Z,17.83
2022-10-01T17:56:33.104Z,18.27
2022-10-01T17:59:00.775Z,11.48
2022-10-01T18:01:28.098Z,17.52
2022-10-01T18:03:56.405Z,12.13
2022-10-01T18:06:24.845Z,17.48
2022-10-01T18:08:55.516Z,13.45
2022-10-01T18:11:28.509Z,15.38
2022-10-01T18:13:55.745Z,12.35
2022-10-01T18:16:23.785Z,10.85
2022-10-01T18:21:51.540Z,17.27
2022-10-01T18:24:19.012Z,18.88
2022-10-01T18:26:46.313Z,14.57
2022-10-01T18:29:22.853Z,20.38
2022-10-01T18:32:17.379Z,14.63
2022-10-01T18:34:59.212Z,15.30
2022-10-01T18:37:40.452Z,13.52
2022-10-01T18:40:29.732Z,13.02
2022-10-01T18:43:23.597Z,17.20
2022-10-01T18:46:06.008Z,13.32
2022-10-01T18:49:01.630Z,11.30
2022-10-01T18:51:55.129Z,18.50
2022-10-01T18:54:51.094Z,12.07
2022-10-01T18:57:31.592Z,15.80
2022-10-01T19:00:19.092Z,14.07
2022-10-01T19:03:22.494Z,15.40
2022-10-01T19:05:59.210Z,15.10
2022-10-01T19:08:29.801Z,17.15
2022-10-01T19:11:27.635Z,14.35
2022-10-01T19:14:21.370Z,14.95
2022-10-01T19:17:21.328Z,12.10
2022-10-01T19:20:08.092Z,16.75
2022-10-01T19:22:48.101Z,19.10
2022-10-01T19:25:18.393Z,15.00
2022-10-01T19:28:32.138Z,18.90
2022-10-01T19:31:36.280Z,14.90
2022-10-01T19:34:14.365Z,19.73
2022-10-01T19:36:48.965Z,12.73
2022-10-01T19:39:30.378Z,9.95
2022-10-01T19:42:04.093Z,14.02
2022-10-01T19:44:40.287Z,14.68
2022-10-01T19:47:34.792Z,13.02
2022-10-01T19:50:12.982Z,15.85
2022-10-01T19:52:41.683Z,12.85
2022-10-01T19:55:19.684Z,12.15
2022-10-01T19:57:47.447Z,11.35
2022-10-01T20:00:20.321Z,12.95
2022-10-01T20:03:01.066Z,12.52
2022-10-01T20:05:32.650Z,11.70
2022-10-01T20:08:06.814Z,11.38
2022-10-01T20:10:49.756Z,9.15
2022-10-01T20:13:44.563Z,10.65
2022-10-01T20:16:49.639Z,9.90
2022-10-01T20:19:29.103Z,9.88
2022-10-01T20:22:23.643Z,11.70
2022-10-01T20:25:23.168Z,9.75
2022-10-01T20:28:09.698Z,15.43
2022-10-01T20:30:58.804Z,13.65
2022-10-01T20:33:33.635Z,14.40
2022-10-01T20:36:41.566Z,13.40
2022-10-01T20:39:13.154Z,11.13
2022-10-01T20:41:46.149Z,15.38
2022-10-01T20:44:22.645Z,14.63
2022-10-01T20:47:05.215Z,13.50
2022-10-01T20:49:44.807Z,7.65
2022-10-01T20:52:40.611Z,10.43
2022-10-01T20:55:15.954Z,13.98
2022-10-01T20:57:58.959Z,16.10
2022-10-01T21:00:31.559Z,10.75
2022-10-01T21:03:25.946Z,16.13
2022-10-01T21:06:26.873Z,14.55
2022-10-01T21:09:09.577Z,16.15
2022-10-01T21:12:04.257Z,21.83
2022-10-01T21:15:02.787Z,15.82
2022-10-01T21:17:44.841Z,24.20
2022-10-01T21:20:23.488Z,12.02
2022-10-01T21:23:20.320Z,17.17
2022-10-01T21:26:22.216Z,12.07
2022-10-01T21:29:16.737Z,17.52
2022-10-01T21:32:15.648Z,15.10
2022-10-01T21:34:43.767Z,12.80
2022-10-01T21:37:26.742Z,12.18
2022-10-01T21:40:31.622Z,12.20
2022-10-01T21:43:10.570Z,9.07
2022-10-01T21:46:46.588Z,14.05
2022-10-01T21:49:35.386Z,14.02
2022-10-01T21:52:12.962Z,21.60
2022-10-01T21:55:00.147Z,19.15
2022-10-01T21:58:05.485Z,17.95
2022-10-01T22:00:38.707Z,14.52
2022-10-01T22:06:10.338Z,11.90
2022-10-01T22:08:58.230Z,16.65
2022-10-01T22:11:35.514Z,15.93
2022-10-01T22:14:16.684Z,11.07
2022-10-01T22:17:10.803Z,13.93
2022-10-01T22:19:43.718Z,12.52
2022-10-01T22:22:35.048Z,15.20
2022-10-01T22:25:08.577Z,11.88
2022-10-01T22:27:48.058Z,16.90
2022-10-01T22:30:21.769Z,16.05
2022-10-01T22:33:24.632Z,15.13
2022-10-01T22:35:59.824Z,14.52
2022-10-01T22:38:55.669Z,14.93
2022-10-01T22:41:45.847Z,14.68
2022-10-01T22:44:18.303Z,20.38
2022-10-01T22:47:11.769Z,15.43
2022-10-01T22:50:08.432Z,12.02
2022-10-01T22:53:10.116Z,13.60
2022-10-01T22:56:08.254Z,19.65
2022-10-01T22:59:02.654Z,14.18
